createdAt,value
2022-08-05T00:01:28.588Z,25.53
2022-08-05T00:06:05.165Z,25.53
2022-08-05T00:09:52.020Z,24.62
2022-08-05T00:13:56.029Z,25.02
2022-08-05T00:17:57.441Z,25.01
2022-08-05T00:22:04.346Z,24.05
2022-08-05T00:26:07.046Z,24.53
2022-08-05T00:30:11.607Z,24.69
2022-08-05T00:34:56.203Z,24.86
2022-08-05T00:38:36.766Z,24.80
2022-08-05T00:42:42.301Z,24.78
2022-08-05T00:46:54.183Z,24.07
2022-08-05T00:51:08.915Z,24.43
2022-08-05T00:55:42.303Z,23.70
2022-08-05T00:59:45.507Z,23.55
2022-08-05T01:03:50.036Z,23.67
2022-08-05T01:08:30.677Z,23.53
2022-08-05T01:12:18.813Z,23.74
2022-08-05T01:16:59.943Z,23.45
2022-08-05T01:21:38.034Z,23.37
2022-08-05T01:25:54.054Z,23.23
2022-08-05T01:29:59.894Z,23.24
2022-08-05T01:34:12.319Z,22.66
2022-08-05T01:38:26.916Z,23.24
2022-08-05T01:42:31.540Z,23.07
2022-08-05T01:46:42.175Z,23.34
2022-08-05T01:50:50.865Z,23.12
2022-08-05T01:54:56.119Z,23.21
2022-08-05T01:59:00.303Z,23.02
2022-08-05T02:03:24.325Z,23.39
2022-08-05T02:07:32.152Z,23.43
2022-08-05T02:11:52.308Z,23.44
2022-08-05T02:16:01.495Z,23.45
2022-08-05T02:20:09.645Z,23.14
2022-08-05T02:24:17.990Z,23.52
2022-08-05T02:28:29.338Z,23.07
2022-08-05T02:32:34.103Z,23.31
2022-08-05T02:36:38.679Z,23.45
2022-08-05T02:40:43.509Z,22.94
2022-08-05T02:44:46.980Z,23.16
2022-08-05T02:48:49.660Z,23.37
2022-08-05T02:52:54.280Z,22.96
2022-08-05T02:56:56.613Z,23.34
2022-08-05T03:01:01.983Z,23.27
2022-08-05T03:05:06.868Z,23.36
2022-08-05T03:09:12.273Z,23.45
2022-08-05T03:13:19.081Z,23.44
2022-08-05T03:17:29.230Z,23.37
2022-08-05T03:21:33.079Z,23.30
2022-08-05T03:26:04.762Z,23.15
2022-08-05T03:30:07.770Z,23.39
2022-08-05T03:34:10.649Z,23.22
2022-08-05T03:38:14.501Z,23.23
2022-08-05T03:42:16.115Z,23.18
2022-08-05T03:46:17.573Z,23.13
2022-08-05T03:50:20.347Z,23.38
2022-08-05T03:55:50.834Z,23.31
2022-08-05T03:58:55.400Z,23.38
2022-08-05T04:03:02.978Z,23.39
2022-08-05T04:07:06.855Z,23.19
2022-08-05T04:11:09.906Z,23.41
2022-08-05T04:15:15.698Z,23.48
2022-08-05T04:19:18.301Z,23.46
2022-08-05T04:24:04.861Z,23.55
2022-08-05T04:27:57.490Z,23.24
2022-08-05T04:32:01.275Z,23.34
2022-08-05T04:36:15.889Z,23.44
2022-08-05T04:40:24.312Z,23.36
2022-08-05T04:44:30.235Z,23.62
2022-08-05T04:48:32.882Z,23.94
2022-08-05T04:52:34.451Z,24.09
2022-08-05T04:56:37.014Z,24.15
2022-08-05T05:00:40.152Z,24.28
2022-08-05T05:04:47.633Z,24.32
2022-08-05T05:08:50.117Z,24.53
2022-08-05T05:12:51.727Z,24.52
2022-08-05T05:16:53.150Z,24.32
2022-08-05T05:20:56.150Z,24.45
2022-08-05T05:25:01.290Z,24.50
2022-08-05T05:29:17.790Z,24.47
2022-08-05T05:33:23.142Z,24.61
2022-08-05T05:37:37.322Z,24.58
2022-08-05T05:41:46.482Z,24.75
2022-08-05T05:45:55.813Z,24.90
2022-08-05T05:50:01.579Z,24.81
2022-08-05T05:54:05.582Z,24.82
2022-08-05T05:58:13.118Z,24.58
2022-08-05T06:02:15.785Z,24.55
2022-08-05T06:06:18.323Z,24.52
2022-08-05T06:10:19.772Z,24.34
2022-08-05T06:14:25.256Z,24.04
2022-08-05T06:18:31.336Z,23.62
2022-08-05T06:22:34.682Z,23.53
2022-08-05T06:26:36.172Z,23.44
2022-08-05T06:30:37.674Z,23.40
2022-08-05T06:34:39.347Z,23.36
2022-08-05T06:38:47.037Z,23.71
2022-08-05T06:42:51.534Z,24.13
2022-08-05T06:46:54.538Z,23.93
2022-08-05T06:50:56.436Z,23.95
2022-08-05T06:54:57.838Z,24.21
2022-08-05T06:58:59.365Z,24.69
2022-08-05T07:03:01.883Z,24.91
2022-08-05T07:07:03.557Z,24.79
2022-08-05T07:11:15.228Z,24.98
2022-08-05T07:16:01.723Z,25.43
2022-08-05T07:20:31.513Z,25.39
2022-08-05T07:24:18.848Z,24.97
2022-08-05T07:28:22.492Z,25.10
2022-08-05T07:32:24.249Z,25.16
2022-08-05T07:36:27.880Z,24.87
2022-08-05T07:40:32.048Z,25.00
2022-08-05T07:44:34.653Z,24.93
2022-08-05T07:49:01.472Z,24.66
2022-08-05T07:52:59.216Z,24.83
2022-08-05T07:57:17.965Z,24.70
2022-08-05T08:01:27.667Z,24.52
2022-08-05T08:05:31.494Z,24.63
2022-08-05T08:09:41.092Z,24.64
2022-08-05T08:14:00.839Z,24.58
2022-08-05T08:18:05.051Z,24.58
2022-08-05T08:22:10.126Z,24.51
2022-08-05T08:26:17.430Z,24.67
2022-08-05T08:30:39.226Z,24.70
2022-08-05T08:34:48.768Z,24.16
2022-08-05T08:38:53.229Z,24.40
2022-08-05T08:42:56.648Z,24.39
2022-08-05T08:46:58.958Z,24.57
2022-08-05T08:51:22.406Z,24.41
2022-08-05T08:55:31.991Z,24.36
2022-08-05T08:59:47.148Z,23.80
2022-08-05T09:03:55.060Z,23.95
2022-08-05T09:07:59.562Z,23.94
2022-08-05T09:12:13.547Z,24.19
2022-08-05T09:16:22.710Z,24.05
2022-08-05T09:20:37.324Z,24.27
2022-08-05T09:24:39.685Z,24.33
2022-08-05T09:28:41.635Z,24.58
2022-08-05T09:32:46.102Z,24.78
2022-08-05T09:36:54.621Z,24.75
2022-08-05T09:41:02.503Z,24.84
2022-08-05T09:46:05.115Z,24.63
2022-08-05T09:49:57.087Z,24.81
2022-08-05T09:53:59.291Z,24.80
2022-08-05T09:58:14.154Z,24.81
2022-08-05T10:02:30.954Z,24.56
2022-08-05T10:06:34.073Z,24.45
2022-08-05T10:10:50.247Z,24.40
2022-08-05T10:15:13.910Z,23.77
2022-08-05T10:19:23.700Z,23.68
2022-08-05T10:23:59.467Z,23.93
2022-08-05T10:28:13.021Z,24.10
2022-08-05T10:33:01.706Z,24.09
2022-08-05T10:36:41.811Z,23.12
2022-08-05T10:40:52.155Z,23.24
2022-08-05T10:45:00.094Z,23.51
2022-08-05T10:49:08.110Z,23.68
2022-08-05T10:53:38.223Z,23.38
2022-08-05T10:57:45.285Z,23.64
2022-08-05T11:01:55.216Z,23.56
2022-08-05T11:06:15.070Z,23.88
2022-08-05T11:10:27.223Z,23.89
2022-08-05T11:14:57.358Z,25.20
2022-08-05T11:20:10.007Z,25.50
2022-08-05T11:24:03.182Z,25.69
2022-08-05T11:28:17.252Z,26.00
2022-08-05T11:32:25.372Z,26.46
2022-08-05T11:36:42.700Z,25.18
2022-08-05T11:41:54.709Z,25.76
2022-08-05T11:46:15.309Z,26.39
2022-08-05T11:50:09.861Z,26.38
2022-08-05T11:54:33.705Z,28.28
2022-08-05T11:58:41.498Z,27.97
2022-08-05T12:02:54.481Z,27.84
2022-08-05T12:07:00.327Z,27.25
2022-08-05T12:11:06.002Z,27.89
2022-08-05T12:15:18.259Z,28.35
2022-08-05T12:20:25.995Z,29.15
2022-08-05T12:23:57.490Z,29.48
2022-08-05T12:28:02.386Z,29.64
2022-08-05T12:32:05.414Z,30.64
2022-08-05T12:36:09.867Z,30.36
2022-08-05T12:40:20.675Z,31.05
2022-08-05T12:44:33.487Z,30.00
2022-08-05T12:48:38.980Z,30.85
2022-08-05T12:52:42.420Z,31.17
2022-08-05T12:56:48.316Z,31.56
2022-08-05T13:02:00.490Z,30.09
2022-08-05T13:05:15.015Z,31.31
2022-08-05T13:09:27.910Z,31.22
2022-08-05T13:14:06.743Z,31.08
2022-08-05T13:17:59.298Z,31.44
2022-08-05T13:22:00.899Z,30.04
2022-08-05T13:26:05.723Z,30.20
2022-08-05T13:30:34.318Z,28.40
2022-08-05T13:34:32.436Z,29.79
2022-08-05T13:38:36.189Z,30.73
2022-08-05T13:42:40.501Z,29.35
2022-08-05T13:47:04.771Z,28.44
2022-08-05T13:51:13.968Z,27.72
2022-08-05T13:55:41.801Z,27.68
2022-08-05T13:59:57.534Z,27.27
2022-08-05T14:04:19.676Z,27.81
2022-08-05T14:08:27.761Z,28.24
2022-08-05T14:12:34.189Z,27.93
2022-08-05T14:16:35.747Z,27.62
2022-08-05T14:20:37.216Z,27.32
2022-08-05T14:24:40.186Z,27.19
2022-08-05T14:28:52.095Z,27.10
2022-08-05T14:32:54.256Z,27.04
2022-08-05T14:36:58.224Z,26.89
2022-08-05T14:41:01.634Z,26.71
2022-08-05T14:45:08.947Z,26.96
2022-08-05T14:49:10.520Z,27.04
2022-08-05T14:53:12.583Z,27.77
2022-08-05T14:57:15.497Z,28.23
2022-08-05T15:01:24.233Z,26.63
2022-08-05T15:06:07.386Z,26.19
2022-08-05T15:10:03.278Z,26.26
2022-08-05T15:14:04.960Z,26.10
2022-08-05T15:18:06.556Z,26.19
2022-08-05T15:22:08.770Z,26.21
2022-08-05T15:26:10.502Z,26.19
2022-08-05T15:30:14.170Z,26.03
2022-08-05T15:34:32.337Z,25.50
2022-08-05T15:38:41.276Z,25.70
2022-08-05T15:42:54.092Z,25.27
2022-08-05T15:47:01.513Z,25.24
2022-08-05T15:51:05.623Z,24.95
2022-08-05T15:55:16.122Z,24.71
2022-08-05T15:59:21.828Z,24.92
2022-08-05T16:03:23.960Z,24.55
2022-08-05T16:07:25.775Z,24.54
2022-08-05T16:11:42.508Z,24.45
2022-08-05T16:15:45.075Z,24.13
2022-08-05T16:20:04.959Z,24.41
2022-08-05T16:24:35.810Z,24.20
2022-08-05T16:28:32.259Z,24.39
2022-08-05T16:32:33.765Z,24.11
2022-08-05T16:36:35.982Z,24.18
2022-08-05T16:40:47.801Z,24.02
2022-08-05T16:44:57.045Z,23.43
2022-08-05T16:48:59.139Z,23.74
2022-08-05T16:53:01.600Z,24.09
2022-08-05T16:57:14.993Z,24.69
2022-08-05T17:01:24.498Z,25.02
2022-08-05T17:05:26.106Z,24.58
2022-08-05T17:09:30.084Z,23.45
2022-08-05T17:13:37.250Z,22.64
2022-08-05T17:17:43.966Z,22.02
2022-08-05T17:21:51.387Z,22.21
2022-08-05T17:25:53.176Z,21.76
2022-08-05T17:29:59.744Z,21.74
2022-08-05T17:34:03.676Z,21.72
2022-08-05T17:38:07.832Z,21.61
2022-08-05T17:42:19.842Z,20.98
2022-08-05T17:46:24.275Z,20.90
2022-08-05T17:50:30.079Z,20.86
2022-08-05T17:54:33.855Z,20.66
2022-08-05T17:58:37.672Z,20.65
2022-08-05T18:02:39.137Z,20.92
2022-08-05T18:06:40.627Z,20.75
2022-08-05T18:10:47.328Z,20.82
2022-08-05T18:14:51.357Z,20.82
2022-08-05T18:18:53.033Z,20.86
2022-08-05T18:22:57.331Z,20.77
2022-08-05T18:26:59.304Z,20.48
2022-08-05T18:31:00.941Z,20.59
2022-08-05T18:35:02.452Z,20.59
2022-08-05T18:39:22.387Z,20.39
2022-08-05T18:43:31.704Z,20.44
2022-08-05T18:47:39.890Z,20.21
2022-08-05T18:52:05.066Z,19.73
2022-08-05T18:56:12.612Z,19.60
2022-08-05T19:00:20.244Z,19.77
2022-08-05T19:04:24.050Z,20.10
2022-08-05T19:08:30.324Z,19.90
2022-08-05T19:12:33.676Z,19.55
2022-08-05T19:16:46.885Z,19.24
2022-08-05T19:20:51.556Z,19.17
2022-08-05T19:24:54.236Z,18.74
2022-08-05T19:28:57.961Z,19.34
2022-08-05T19:32:59.448Z,19.10
2022-08-05T19:37:01.153Z,19.14
2022-08-05T19:41:06.678Z,19.18
2022-08-05T19:45:09.721Z,18.91
2022-08-05T19:49:17.174Z,19.14
2022-08-05T19:54:03.411Z,19.03
2022-08-05T19:58:00.534Z,19.02
2022-08-05T20:02:02.801Z,19.12
2022-08-05T20:06:15.234Z,18.95
2022-08-05T20:10:19.311Z,18.89
2022-08-05T20:14:27.072Z,18.89
2022-08-05T20:18:33.927Z,18.88
2022-08-05T20:22:37.858Z,18.84
2022-08-05T20:26:43.021Z,18.84
2022-08-05T20:30:44.442Z,18.71
2022-08-05T20:34:46.610Z,18.70
2022-08-05T20:38:54.412Z,18.72
2022-08-05T20:43:00.216Z,18.62
2022-08-05T20:47:05.317Z,18.75
2022-08-05T20:51:09.031Z,18.49
2022-08-05T20:55:55.083Z,18.73
2022-08-05T20:59:46.253Z,18.71
2022-08-05T21:03:55.066Z,18.62
2022-08-05T21:07:56.571Z,18.44
2022-08-05T21:12:09.902Z,18.58
2022-08-05T21:16:12.826Z,18.70
2022-08-05T21:20:14.591Z,18.56
2022-08-05T21:24:34.597Z,18.29
2022-08-05T21:28:36.023Z,18.14
2022-08-05T21:32:39.928Z,18.28
2022-08-05T21:36:46.592Z,17.85
2022-08-05T21:40:50.653Z,18.19
2022-08-05T21:44:52.138Z,17.98
2022-08-05T21:48:56.581Z,17.99
2022-08-05T21:52:58.929Z,17.83
2022-08-05T21:57:29.662Z,17.78
2022-08-05T22:01:28.359Z,17.75
2022-08-05T22:05:48.781Z,17.88
2022-08-05T22:09:50.919Z,17.61
2022-08-05T22:14:19.586Z,17.44
2022-08-05T22:18:14.427Z,17.33
2022-08-05T22:22:16.179Z,17.58
2022-08-05T22:26:40.176Z,17.62
2022-08-05T22:30:56.230Z,17.46
2022-08-05T22:34:59.362Z,17.31
2022-08-05T22:39:09.070Z,17.55
2022-08-05T22:43:11.047Z,17.20
2022-08-05T22:47:14.876Z,16.91
2022-08-05T22:52:05.620Z,17.42
2022-08-05T22:55:56.490Z,16.93
2022-08-05T22:59:58.829Z,17.13
2022-08-05T23:04:00.490Z,16.84
2022-08-05T23:08:03.902Z,17.08
2022-08-05T23:12:05.711Z,16.96
2022-08-05T23:16:07.564Z,17.08
2022-08-05T23:20:17.970Z,16.84
2022-08-05T23:24:19.646Z,16.88
2022-08-05T23:28:22.090Z,16.78
2022-08-05T23:32:25.642Z,16.47
2022-08-05T23:36:38.299Z,16.61
2022-08-05T23:40:42.252Z,16.36
2022-08-05T23:44:54.334Z,15.99
2022-08-05T23:49:01.114Z,16.50
2022-08-05T23:53:03.444Z,16.30
2022-08-05T23:57:05.793Z,16.45
